Welcome to Northern Hawkes Bay. New Zealand.
PWS Header
      nz Flag



Hit Counter


W3C Valid W3C Valid logo


    Wairoa

Select any of the Stations below to visit their websites.










Historic Data from Weather Underground
Select the location of interest below. Wairoa is the default. Please have patience, this Data is slow to load in.
Northern Hawkes Bay Historical Data
Daily Summary for September 18, 2017 Units:  Metric    English   Both
« Previous Day
Next Day »
Daily Weekly Monthly Yearly Custom
  High: Low: Average:
Temperature: 16.9 °C 6.6 °C 11.8 °C
Dew Point: 10.4 °C 4.3 °C 6.1 °C
Humidity: 93% 46% 70%
Wind Speed: 25.6km/h 0.0km/h 6.9km/h
Wind Gust: 41.7km/h - -
Wind- - WNW
Pressure: 1002.9 hPa 999.9 hPa -
Precipitation: 0.5 mm    
Historical Graphs
 
 
Tabular Data for September 18, 2017
Time Temperature Dew Point Pressure Wind Wind Speed Wind Gust Humidity Rainfall Rate (Hourly) solar
00:03 12.2 °C 10.4 °C 1002.9 hPa NNW 6.1 km/h 20.9 km/h 89% 2.3 mm 0 W/m2
00:08 11.9 °C 10.0 °C 1002.9 hPa NNW 3.5 km/h 20.9 km/h 88% 2.3 mm 0 W/m2
00:13 11.7 °C 9.9 °C 1001.9 hPa NNE 3.5 km/h 11.1 km/h 89% 2.3 mm 0 W/m2
00:18 11.6 °C 10.0 °C 1002.3 hPa ENE 2.6 km/h 11.1 km/h 90% 2.3 mm 0 W/m2
00:23 11.5 °C 10.2 °C 1002.3 hPa North 3.5 km/h 9.7 km/h 92% 2.3 mm 0 W/m2
00:28 11.4 °C 10.0 °C 1002.3 hPa NNW 3.5 km/h 13.4 km/h 91% 2.3 mm 0 W/m2
00:33 11.3 °C 9.7 °C 1002.6 hPa NNW 3.5 km/h 13.4 km/h 90% 2.0 mm 0 W/m2
00:38 11.1 °C 9.5 °C 1002.3 hPa NNW 6.1 km/h 9.7 km/h 90% 1.8 mm 0 W/m2
00:43 11.0 °C 9.4 °C 1002.6 hPa Calm   9.7 km/h 90% 1.3 mm 0 W/m2
00:48 11.0 °C 9.4 °C 1001.9 hPa NNW 2.6 km/h 9.7 km/h 90% 0.5 mm 0 W/m2
00:53 11.0 °C 9.4 °C 1001.9 hPa Calm   6.1 km/h 90% 0.5 mm 0 W/m2
00:58 10.9 °C 9.5 °C 1001.9 hPa North 2.6 km/h 5.0 km/h 91% 0.3 mm 0 W/m2
01:03 10.9 °C 9.5 °C 1001.6 hPa Calm   5.0 km/h 91% 0.0 mm 0 W/m2
01:08 10.7 °C 9.1 °C 1001.9 hPa NE 1.1 km/h 5.0 km/h 90% 0.0 mm 0 W/m2
01:13 10.5 °C 9.1 °C 1001.6 hPa NE 1.1 km/h 11.1 km/h 91% 0.0 mm 0 W/m2
01:18 10.6 °C 9.1 °C 1001.6 hPa NNE 2.6 km/h 11.1 km/h 90% 0.0 mm 0 W/m2
01:23 10.7 °C 8.8 °C 1001.6 hPa NNE 11.1 km/h 19.5 km/h 88% 0.0 mm 0 W/m2
01:28 10.8 °C 8.6 °C 1001.2 hPa NNE 1.1 km/h 19.5 km/h 86% 0.0 mm 0 W/m2
01:33 10.8 °C 8.4 °C 1001.2 hPa North 3.5 km/h 9.7 km/h 85% 0.0 mm 0 W/m2
01:38 10.8 °C 8.4 °C 1001.2 hPa NNE 2.6 km/h 9.7 km/h 85% 0.0 mm 0 W/m2
01:43 10.7 °C 8.3 °C 1001.2 hPa North 2.6 km/h 9.7 km/h 85% 0.0 mm 0 W/m2
01:48 10.5 °C 8.1 °C 1000.9 hPa NNE 9.7 km/h 12.2 km/h 85% 0.0 mm 0 W/m2
01:53 10.6 °C 8.2 °C 1000.6 hPa NNE 6.1 km/h 12.2 km/h 85% 0.0 mm 0 W/m2
01:58 10.4 °C 8.0 °C 1000.6 hPa North 7.2 km/h 12.2 km/h 85% 0.0 mm 0 W/m2
02:03 10.4 °C 8.2 °C 1000.6 hPa NNW 8.7 km/h 17.2 km/h 86% 0.0 mm 0 W/m2
02:08 10.3 °C 8.1 °C 1000.2 hPa North 7.2 km/h 17.2 km/h 86% 0.0 mm 0 W/m2
02:13 10.3 °C 8.1 °C 1000.2 hPa NNE 7.2 km/h 13.4 km/h 86% 0.0 mm 0 W/m2
02:18 10.5 °C 8.1 °C 1000.2 hPa North 6.1 km/h 19.5 km/h 85% 0.0 mm 0 W/m2
02:23 10.6 °C 8.0 °C 1000.2 hPa North 11.1 km/h 19.5 km/h 84% 0.0 mm 0 W/m2
02:28 10.7 °C 7.9 °C 1000.2 hPa North 11.1 km/h 17.2 km/h 83% 0.0 mm 0 W/m2
02:33 10.8 °C 8.1 °C 999.9 hPa North 12.2 km/h 21.9 km/h 83% 0.0 mm 0 W/m2
02:38 10.8 °C 7.8 °C 1000.2 hPa North 9.7 km/h 21.9 km/h 82% 0.0 mm 0 W/m2
02:43 10.8 °C 7.8 °C 999.9 hPa NNE 14.8 km/h 23.3 km/h 82% 0.0 mm 0 W/m2
02:48 10.5 °C 7.7 °C 999.9 hPa North 8.7 km/h 23.3 km/h 83% 0.0 mm 0 W/m2
02:53 10.4 °C 7.7 °C 1000.2 hPa NNW 7.2 km/h 20.9 km/h 83% 0.0 mm 0 W/m2
02:58 10.3 °C 7.7 °C 1000.2 hPa NNW 5.0 km/h 19.5 km/h 84% 0.0 mm 0 W/m2
03:03 10.5 °C 7.7 °C 1000.2 hPa NNW 2.6 km/h 17.2 km/h 83% 0.0 mm 0 W/m2
03:08 10.7 °C 7.8 °C 1000.2 hPa NNW 3.5 km/h 17.2 km/h 82% 0.0 mm 0 W/m2
03:13 10.7 °C 7.6 °C 1000.2 hPa NNW 3.5 km/h 14.8 km/h 81% 0.0 mm 0 W/m2
03:18 10.5 °C 7.4 °C 1000.2 hPa North 3.5 km/h 11.1 km/h 81% 0.0 mm 0 W/m2
03:23 10.4 °C 7.4 °C 1000.2 hPa North 3.5 km/h 9.7 km/h 82% 0.0 mm 0 W/m2
03:28 10.4 °C 7.4 °C 1000.2 hPa North 7.2 km/h 11.1 km/h 82% 0.0 mm 0 W/m2
03:38 10.4 °C 7.4 °C 1000.2 hPa North 8.7 km/h 12.2 km/h 82% 0.0 mm 0 W/m2
03:43 10.3 °C 7.4 °C 1000.6 hPa NNW 9.7 km/h 14.8 km/h 82% 0.0 mm 0 W/m2
03:48 10.4 °C 7.7 °C 1000.2 hPa North 8.7 km/h 17.2 km/h 83% 0.0 mm 0 W/m2
03:53 10.5 °C 7.7 °C 1000.6 hPa North 6.1 km/h 17.2 km/h 83% 0.0 mm 0 W/m2
03:58 10.6 °C 7.7 °C 1000.6 hPa North 8.7 km/h 17.2 km/h 82% 0.0 mm 0 W/m2
04:03 10.6 °C 7.5 °C 1000.2 hPa North 8.7 km/h 18.3 km/h 81% 0.0 mm 0 W/m2
04:08 10.5 °C 7.4 °C 1000.2 hPa NNW 6.1 km/h 18.3 km/h 81% 0.0 mm 0 W/m2
04:13 10.5 °C 7.4 °C 1000.6 hPa NNW 11.1 km/h 17.2 km/h 81% 0.0 mm 0 W/m2
04:18 10.6 °C 7.3 °C 1000.6 hPa North 5.0 km/h 17.2 km/h 80% 0.0 mm 0 W/m2
04:23 10.7 °C 7.0 °C 1000.6 hPa NNW 3.5 km/h 17.2 km/h 78% 0.0 mm 0 W/m2
04:28 10.7 °C 6.8 °C 1000.6 hPa Calm   11.1 km/h 77% 0.0 mm 0 W/m2
04:33 10.4 °C 6.7 °C 1000.6 hPa NNW 1.1 km/h 5.0 km/h 78% 0.0 mm 0 W/m2
04:38 10.1 °C 6.4 °C 1000.6 hPa NNE 1.1 km/h 2.6 km/h 78% 0.0 mm 0 W/m2
04:43 10.0 °C 6.7 °C 1000.6 hPa NNE 2.6 km/h 6.1 km/h 80% 0.0 mm 0 W/m2
04:48 9.9 °C 7.3 °C 1000.6 hPa North 5.0 km/h 8.7 km/h 84% 0.0 mm 0 W/m2
04:53 9.8 °C 7.2 °C 1000.6 hPa North 3.5 km/h 8.7 km/h 84% 0.0 mm 0 W/m2
04:58 9.6 °C 7.1 °C 1000.2 hPa NNW 5.0 km/h 8.7 km/h 84% 0.0 mm 0 W/m2
05:03 9.5 °C 7.1 °C 1000.6 hPa NNW 2.6 km/h 11.1 km/h 85% 0.0 mm 0 W/m2
05:08 9.4 °C 6.8 °C 1000.6 hPa NNW 2.6 km/h 11.1 km/h 84% 0.0 mm 0 W/m2
05:13 9.3 °C 6.7 °C 1000.6 hPa Calm   6.1 km/h 84% 0.0 mm 0 W/m2
05:18 9.1 °C 6.6 °C 1000.9 hPa Calm   5.0 km/h 84% 0.0 mm 0 W/m2
05:23 9.2 °C 6.8 °C 1000.6 hPa North 3.5 km/h 6.1 km/h 85% 0.0 mm 0 W/m2
05:28 9.0 °C 6.6 °C 1000.6 hPa North 5.0 km/h 8.7 km/h 85% 0.0 mm 0 W/m2
05:33 9.0 °C 6.6 °C 1000.6 hPa North 2.6 km/h 8.7 km/h 85% 0.0 mm 0 W/m2
05:38 9.0 °C 6.6 °C 1000.9 hPa NNW 3.5 km/h 8.7 km/h 85% 0.0 mm 0 W/m2
05:43 9.2 °C 6.7 °C 1000.9 hPa NNW 2.6 km/h 7.2 km/h 84% 0.0 mm 0 W/m2
05:48 9.1 °C 6.6 °C 1000.9 hPa NW 2.6 km/h 7.2 km/h 84% 0.0 mm 0 W/m2
05:53 9.0 °C 6.4 °C 1000.9 hPa NW 3.5 km/h 6.1 km/h 84% 0.0 mm 0 W/m2
05:58 8.7 °C 6.3 °C 1000.9 hPa NNW 3.5 km/h 6.1 km/h 85% 0.0 mm 0 W/m2
06:03 8.5 °C 6.1 °C 1000.6 hPa North 6.1 km/h 8.7 km/h 85% 0.0 mm 0 W/m2
06:08 8.7 °C 6.3 °C 1000.6 hPa North 5.0 km/h 8.7 km/h 85% 0.0 mm 0 W/m2
06:13 9.0 °C 6.4 °C 1000.6 hPa NNW 5.0 km/h 11.1 km/h 84% 0.0 mm 1 W/m2
06:18 9.4 °C 6.5 °C 1000.6 hPa NNW 3.5 km/h 15.8 km/h 82% 0.0 mm 4 W/m2
06:23 9.5 °C 6.2 °C 1000.6 hPa NNW 5.0 km/h 15.8 km/h 80% 0.0 mm 7 W/m2
06:28 9.7 °C 6.2 °C 1000.6 hPa NNW 9.7 km/h 15.8 km/h 79% 0.0 mm 10 W/m2
06:33 10.0 °C 5.9 °C 1000.6 hPa NW 11.1 km/h 19.5 km/h 76% 0.0 mm 16 W/m2
06:38 10.2 °C 5.9 °C 1000.6 hPa NW 12.2 km/h 20.9 km/h 75% 0.0 mm 19 W/m2
06:43 10.4 °C 5.9 °C 1000.6 hPa NNW 9.7 km/h 20.9 km/h 74% 0.0 mm 22 W/m2
06:48 10.5 °C 6.1 °C 1000.9 hPa North 9.7 km/h 19.5 km/h 74% 0.0 mm 24 W/m2
06:53 10.6 °C 5.9 °C 1000.9 hPa NNW 11.1 km/h 25.6 km/h 73% 0.0 mm 28 W/m2
06:58 10.5 °C 5.9 °C 1001.2 hPa NNW 9.7 km/h 25.6 km/h 73% 0.0 mm 29 W/m2
07:03 10.5 °C 5.9 °C 1001.2 hPa North 17.2 km/h 21.9 km/h 73% 0.0 mm 36 W/m2
07:08 10.4 °C 5.9 °C 1001.2 hPa North 8.7 km/h 21.9 km/h 74% 0.0 mm 47 W/m2
07:13 10.4 °C 5.9 °C 1001.2 hPa NNW 9.7 km/h 18.3 km/h 74% 0.0 mm 114 W/m2
07:18 10.7 °C 6.3 °C 1001.2 hPa NNW 6.1 km/h 15.8 km/h 74% 0.0 mm 108 W/m2
07:23 10.9 °C 6.4 °C 1001.2 hPa North 9.7 km/h 17.2 km/h 74% 0.0 mm 170 W/m2
07:28 11.3 °C 6.4 °C 1001.6 hPa North 9.7 km/h 17.2 km/h 72% 0.0 mm 171 W/m2
07:33 11.4 °C 6.3 °C 1001.6 hPa North 11.1 km/h 23.3 km/h 71% 0.0 mm 193 W/m2
07:38 11.7 °C 6.4 °C 1001.6 hPa North 13.4 km/h 23.3 km/h 70% 0.0 mm 202 W/m2
07:43 12.0 °C 6.1 °C 1001.6 hPa North 11.1 km/h 20.9 km/h 67% 0.0 mm 210 W/m2
07:48 12.3 °C 6.1 °C 1001.9 hPa North 11.1 km/h 20.9 km/h 66% 0.0 mm 218 W/m2
08:05 12.7 °C 6.1 °C 1001.6 hPa North 15.8 km/h 27.0 km/h 64% 0.0 mm 220 W/m2
08:10 12.9 °C 6.3 °C 1001.6 hPa North 12.2 km/h 29.4 km/h 64% 0.0 mm 263 W/m2
08:15 13.1 °C 6.2 °C 1001.9 hPa NNW 20.9 km/h 34.3 km/h 63% 0.3 mm 283 W/m2
08:20 13.5 °C 6.4 °C 1001.9 hPa NNW 13.4 km/h 34.3 km/h 62% 0.3 mm 304 W/m2
08:26 13.7 °C 6.1 °C 1001.9 hPa NW 15.8 km/h 31.7 km/h 60% 0.3 mm 284 W/m2
08:31 14.0 °C 6.1 °C 1001.9 hPa NW 13.4 km/h 31.7 km/h 59% 0.3 mm 277 W/m2
08:36 14.1 °C 6.2 °C 1002.3 hPa NNW 19.5 km/h 24.5 km/h 59% 0.3 mm 235 W/m2
08:41 14.0 °C 5.9 °C 1002.3 hPa NNW 12.2 km/h 24.5 km/h 58% 0.3 mm 238 W/m2
08:46 13.8 °C 6.2 °C 1002.3 hPa NNW 11.1 km/h 24.5 km/h 60% 0.3 mm 138 W/m2
08:51 13.4 °C 5.6 °C 1002.3 hPa NNW 9.7 km/h 23.3 km/h 59% 0.3 mm 124 W/m2
08:56 13.1 °C 5.5 °C 1002.3 hPa NNW 11.1 km/h 21.9 km/h 60% 0.3 mm 162 W/m2
09:01 13.5 °C 6.1 °C 1001.9 hPa NNW 13.4 km/h 21.9 km/h 61% 0.3 mm 371 W/m2
09:06 14.0 °C 5.9 °C 1002.3 hPa NNW 12.2 km/h 23.3 km/h 58% 0.3 mm 175 W/m2
09:11 13.5 °C 5.7 °C 1001.9 hPa NNW 20.9 km/h 28.0 km/h 59% 0.3 mm 177 W/m2
09:16 13.5 °C 5.9 °C 1001.9 hPa NNW 11.1 km/h 28.0 km/h 60% 0.0 mm 205 W/m2
09:21 13.4 °C 5.6 °C 1001.9 hPa NW 17.2 km/h 33.1 km/h 59% 0.0 mm 127 W/m2
09:26 13.3 °C 5.7 °C 1001.9 hPa NW 13.4 km/h 33.1 km/h 60% 0.0 mm 294 W/m2
09:31 13.9 °C 6.0 °C 1001.9 hPa NNW 13.4 km/h 28.0 km/h 59% 0.0 mm 206 W/m2
09:36 14.0 °C 5.9 °C 1002.3 hPa NNW 17.2 km/h 28.0 km/h 58% 0.0 mm 349 W/m2
09:41 14.5 °C 6.3 °C 1002.3 hPa NNW 14.8 km/h 27.0 km/h 58% 0.0 mm 346 W/m2
09:46 14.5 °C 6.1 °C 1002.3 hPa NNW 15.8 km/h 27.0 km/h 57% 0.0 mm 72 W/m2
09:51 14.9 °C 6.4 °C 1002.3 hPa NNW 25.6 km/h 30.6 km/h 57% 0.0 mm 166 W/m2
09:56 14.7 °C 5.8 °C 1001.9 hPa NNW 14.8 km/h 31.7 km/h 55% 0.0 mm 72 W/m2
10:01 14.8 °C 5.6 °C 1001.9 hPa NNW 25.6 km/h 33.1 km/h 54% 0.0 mm 160 W/m2
10:06 14.7 °C 4.9 °C 1001.9 hPa NW 18.3 km/h 41.7 km/h 52% 0.0 mm 123 W/m2
10:11 14.9 °C 5.4 °C 1001.9 hPa NNW 20.9 km/h 41.7 km/h 53% 0.0 mm 97 W/m2
10:16 15.3 °C 6.1 °C 1001.9 hPa NNW 24.5 km/h 33.1 km/h 54% 0.0 mm 144 W/m2
10:21 15.3 °C 5.8 °C 1001.9 hPa NNW 12.2 km/h 36.7 km/h 53% 0.0 mm 219 W/m2
10:26 15.6 °C 6.1 °C 1001.9 hPa NNW 13.4 km/h 36.7 km/h 53% 0.0 mm 318 W/m2
10:31 15.4 °C 5.1 °C 1001.6 hPa NNW 24.5 km/h 37.8 km/h 50% 0.0 mm 396 W/m2
10:36 15.3 °C 5.2 °C 1001.6 hPa NNW 20.9 km/h 37.8 km/h 51% 0.0 mm 409 W/m2
10:41 15.2 °C 5.1 °C 1001.6 hPa NW 19.5 km/h 35.6 km/h 51% 0.0 mm 428 W/m2
10:46 15.1 °C 5.3 °C 1001.6 hPa NW 14.8 km/h 35.6 km/h 52% 0.0 mm 441 W/m2
10:51 15.7 °C 6.4 °C 1001.6 hPa NNW 15.8 km/h 35.6 km/h 54% 0.0 mm 453 W/m2
10:56 15.9 °C 6.6 °C 1001.6 hPa NNW 18.3 km/h 30.6 km/h 54% 0.0 mm 460 W/m2
11:01 16.0 °C 6.2 °C 1001.9 hPa NNW 8.7 km/h 30.6 km/h 52% 0.0 mm 474 W/m2
11:06 16.0 °C 6.4 °C 1001.6 hPa NNW 13.4 km/h 27.0 km/h 53% 0.0 mm 485 W/m2
11:11 16.0 °C 6.2 °C 1001.6 hPa NNW 13.4 km/h 27.0 km/h 52% 0.0 mm 524 W/m2
11:16 16.0 °C 6.2 °C 1001.6 hPa NNW 17.2 km/h 30.6 km/h 52% 0.0 mm 499 W/m2
11:21 15.8 °C 6.2 °C 1001.6 hPa NNW 14.8 km/h 30.6 km/h 53% 0.0 mm 491 W/m2
11:26 15.8 °C 6.5 °C 1001.6 hPa NNW 21.9 km/h 33.1 km/h 54% 0.0 mm 348 W/m2
11:31 15.5 °C 6.2 °C 1001.6 hPa NNW 18.3 km/h 33.1 km/h 54% 0.0 mm 257 W/m2
11:36 15.2 °C 5.9 °C 1001.6 hPa NNW 12.2 km/h 33.1 km/h 54% 0.0 mm 276 W/m2
11:41 15.6 °C 6.6 °C 1001.2 hPa NNW 15.8 km/h 24.5 km/h 55% 0.0 mm 483 W/m2
11:46 16.3 °C 6.7 °C 1001.2 hPa NNW 8.7 km/h 24.5 km/h 53% 0.0 mm 567 W/m2
11:52 16.6 °C 5.8 °C 1001.2 hPa NW 13.4 km/h 23.3 km/h 49% 0.0 mm 608 W/m2
11:57 16.9 °C 6.4 °C 1001.2 hPa NW 15.8 km/h 23.3 km/h 50% 0.0 mm 626 W/m2
12:02 16.6 °C 6.2 °C 1001.2 hPa NNW 14.8 km/h 27.0 km/h 50% 0.0 mm 305 W/m2
12:07 16.5 °C 5.8 °C 1001.2 hPa NW 12.2 km/h 27.0 km/h 49% 0.0 mm 276 W/m2
12:12 16.0 °C 4.4 °C 1001.2 hPa WNW 13.4 km/h 29.4 km/h 46% 0.0 mm 291 W/m2
12:17 15.8 °C 4.8 °C 1001.6 hPa NW 17.2 km/h 39.3 km/h 48% 0.0 mm 310 W/m2
12:22 16.0 °C 5.0 °C 1001.2 hPa NW 13.4 km/h 39.3 km/h 48% 0.0 mm 503 W/m2
12:27 16.6 °C 4.9 °C 1001.2 hPa NW 14.8 km/h 29.4 km/h 46% 0.0 mm 631 W/m2
12:32 16.8 °C 5.4 °C 1001.2 hPa NW 21.9 km/h 29.4 km/h 47% 0.0 mm 481 W/m2
12:37 16.8 °C 5.4 °C 1001.6 hPa NW 15.8 km/h 31.7 km/h 47% 0.0 mm 527 W/m2
12:42 16.6 °C 4.9 °C 1001.2 hPa NW 14.8 km/h 33.1 km/h 46% 0.0 mm 488 W/m2
12:47 16.6 °C 4.9 °C 1001.2 hPa NW 17.2 km/h 33.1 km/h 46% 0.0 mm 372 W/m2
12:52 16.3 °C 4.7 °C 1001.2 hPa NW 17.2 km/h 39.3 km/h 46% 0.0 mm 409 W/m2
12:57 16.3 °C 5.0 °C 1000.9 hPa NW 17.2 km/h 39.3 km/h 47% 0.0 mm 376 W/m2
13:02 16.3 °C 5.6 °C 1000.9 hPa NW 11.1 km/h 30.6 km/h 49% 0.0 mm 312 W/m2
13:07 16.3 °C 6.2 °C 1000.9 hPa NW 5.0 km/h 27.0 km/h 51% 0.0 mm 341 W/m2
13:12 16.6 °C 6.7 °C 1001.2 hPa NW 11.1 km/h 20.9 km/h 52% 0.0 mm 296 W/m2
13:17 16.3 °C 5.3 °C 1001.2 hPa NNW 13.4 km/h 29.4 km/h 48% 0.0 mm 247 W/m2
13:22 15.9 °C 5.8 °C 1000.9 hPa NW 9.7 km/h 29.4 km/h 51% 0.0 mm 285 W/m2
13:27 15.9 °C 6.6 °C 1000.9 hPa NW 7.2 km/h 27.0 km/h 54% 0.0 mm 226 W/m2
13:32 15.9 °C 6.6 °C 1000.9 hPa NNW 15.8 km/h 27.0 km/h 54% 0.0 mm 224 W/m2
13:37 15.4 °C 6.4 °C 1000.9 hPa NNW 5.0 km/h 27.0 km/h 55% 0.0 mm 218 W/m2
13:42 15.5 °C 6.2 °C 1000.9 hPa NNW 13.4 km/h 27.0 km/h 54% 0.0 mm 214 W/m2
13:47 15.3 °C 5.8 °C 1000.9 hPa NW 6.1 km/h 25.6 km/h 53% 0.0 mm 211 W/m2
13:57 15.2 °C 5.7 °C 1000.9 hPa NW 12.2 km/h 24.5 km/h 53% 0.0 mm 205 W/m2
14:02 15.2 °C 5.9 °C 1000.6 hPa NNW 12.2 km/h 24.5 km/h 54% 0.0 mm 207 W/m2
14:07 15.3 °C 6.3 °C 1000.6 hPa NNW 12.2 km/h 20.9 km/h 55% 0.0 mm 187 W/m2
14:12 15.1 °C 5.9 °C 1000.6 hPa NNW 11.1 km/h 29.4 km/h 54% 0.0 mm 170 W/m2
14:17 15.1 °C 5.6 °C 1000.6 hPa NNW 7.2 km/h 29.4 km/h 53% 0.0 mm 178 W/m2
14:22 15.1 °C 6.1 °C 1000.6 hPa NNW 9.7 km/h 27.0 km/h 55% 0.0 mm 180 W/m2
14:27 15.1 °C 6.1 °C 1000.6 hPa NNW 12.2 km/h 21.9 km/h 55% 0.0 mm 161 W/m2
14:32 15.0 °C 6.1 °C 1000.6 hPa NNW 6.1 km/h 25.6 km/h 55% 0.0 mm 148 W/m2
14:37 14.9 °C 6.2 °C 1000.6 hPa NNW 15.8 km/h 25.6 km/h 56% 0.0 mm 137 W/m2
14:42 14.8 °C 5.8 °C 1000.6 hPa NNW 8.7 km/h 20.9 km/h 55% 0.0 mm 130 W/m2
14:47 14.6 °C 5.1 °C 1000.2 hPa North 9.7 km/h 25.6 km/h 53% 0.0 mm 123 W/m2
14:52 14.5 °C 5.3 °C 1000.2 hPa North 15.8 km/h 25.6 km/h 54% 0.0 mm 116 W/m2
14:57 14.5 °C 5.3 °C 1000.2 hPa NNW 11.1 km/h 25.6 km/h 54% 0.0 mm 119 W/m2
15:02 14.4 °C 5.2 °C 1000.6 hPa NW 11.1 km/h 25.6 km/h 54% 0.0 mm 126 W/m2
15:07 14.4 °C 4.9 °C 1000.6 hPa NW 11.1 km/h 27.0 km/h 53% 0.0 mm 126 W/m2
15:17 14.2 °C 5.1 °C 1000.6 hPa North 9.7 km/h 21.9 km/h 54% 0.0 mm 121 W/m2
15:23 14.2 °C 4.8 °C 1000.6 hPa NNW 9.7 km/h 19.5 km/h 53% 0.0 mm 112 W/m2
15:24 14.1 °C 4.4 °C 1000.6 hPa NNW 14.8 km/h 25.6 km/h 52% 0.0 mm 108 W/m2
15:25 14.1 °C 4.4 °C 1000.6 hPa NNW 14.8 km/h 25.6 km/h 52% 0.0 mm 104 W/m2
15:31 13.9 °C 4.7 °C 1000.6 hPa NNW 11.1 km/h 25.6 km/h 54% 0.0 mm 93 W/m2
15:32 13.9 °C 5.0 °C 1000.6 hPa NNW 7.2 km/h 25.6 km/h 55% 0.0 mm 92 W/m2
15:37 13.8 °C 4.7 °C 1000.6 hPa NNW 6.1 km/h 15.8 km/h 54% 0.0 mm 87 W/m2
15:42 13.8 °C 4.7 °C 1000.6 hPa NNW 3.5 km/h 13.4 km/h 54% 0.0 mm 89 W/m2
15:47 13.8 °C 4.9 °C 1000.9 hPa NW 2.6 km/h 12.2 km/h 55% 0.0 mm 105 W/m2
15:52 13.8 °C 4.7 °C 1000.6 hPa NW 3.5 km/h 13.4 km/h 54% 0.0 mm 144 W/m2
15:57 14.7 °C 5.2 °C 1000.6 hPa NW 8.7 km/h 13.4 km/h 53% 0.0 mm 213 W/m2
16:02 14.9 °C 4.8 °C 1000.9 hPa NNW 7.2 km/h 12.2 km/h 51% 0.0 mm 111 W/m2
16:07 14.6 °C 4.3 °C 1000.9 hPa NW 5.0 km/h 12.2 km/h 50% 0.0 mm 175 W/m2
16:12 15.2 °C 4.8 °C 1000.9 hPa NW 1.1 km/h 12.2 km/h 50% 0.0 mm 183 W/m2
16:17 16.3 °C 5.6 °C 1000.9 hPa NNW 2.6 km/h 12.2 km/h 49% 0.0 mm 131 W/m2
16:22 16.0 °C 4.4 °C 1000.9 hPa NW 5.0 km/h 8.7 km/h 46% 0.0 mm 129 W/m2
16:27 15.8 °C 4.8 °C 1000.9 hPa NW 3.5 km/h 11.1 km/h 48% 0.0 mm 136 W/m2
16:32 15.6 °C 4.3 °C 1000.9 hPa NNW 1.1 km/h 11.1 km/h 47% 0.0 mm 106 W/m2
16:37 15.6 °C 4.9 °C 1000.9 hPa NNW 1.1 km/h 9.7 km/h 49% 0.0 mm 59 W/m2
16:42 14.9 °C 4.6 °C 1000.9 hPa NNW 8.7 km/h 12.2 km/h 50% 0.0 mm 46 W/m2
16:47 14.4 °C 4.4 °C 1000.9 hPa NNW 3.5 km/h 12.2 km/h 51% 0.0 mm 101 W/m2
16:52 15.5 °C 5.4 °C 1000.9 hPa NW 6.1 km/h 12.2 km/h 51% 0.0 mm 96 W/m2
16:57 15.4 °C 4.4 °C 1000.9 hPa NW 5.0 km/h 11.1 km/h 48% 0.0 mm 82 W/m2
17:02 14.9 °C 4.6 °C 1000.9 hPa NW 3.5 km/h 13.4 km/h 50% 0.0 mm 46 W/m2
17:07 14.3 °C 4.8 °C 1000.9 hPa NW 3.5 km/h 13.4 km/h 53% 0.0 mm 64 W/m2
17:12 14.5 °C 5.3 °C 1000.9 hPa NW 5.0 km/h 13.4 km/h 54% 0.0 mm 42 W/m2
17:17 14.5 °C 5.3 °C 1000.9 hPa WNW 2.6 km/h 13.4 km/h 54% 0.0 mm 39 W/m2
17:22 14.2 °C 5.3 °C 1000.9 hPa Calm   9.7 km/h 55% 0.0 mm 27 W/m2
17:27 13.6 °C 5.2 °C 1000.9 hPa NW 1.1 km/h 8.7 km/h 57% 0.0 mm 24 W/m2
17:32 13.1 °C 5.5 °C 1000.9 hPa NW 2.6 km/h 8.7 km/h 60% 0.0 mm 22 W/m2
17:37 12.9 °C 5.8 °C 1000.9 hPa Calm   6.1 km/h 62% 0.0 mm 20 W/m2
17:42 12.7 °C 5.6 °C 1001.2 hPa Calm   6.1 km/h 62% 0.0 mm 18 W/m2
17:47 12.5 °C 5.7 °C 1000.9 hPa Calm   3.5 km/h 63% 0.0 mm 12 W/m2
17:52 12.4 °C 5.6 °C 1001.2 hPa Calm   2.6 km/h 63% 0.0 mm 6 W/m2
17:57 12.3 °C 5.4 °C 1000.9 hPa Calm   2.6 km/h 63% 0.0 mm 2 W/m2
18:02 12.2 °C 5.6 °C 1000.9 hPa Calm   2.6 km/h 64% 0.0 mm 0 W/m2
18:07 12.0 °C 5.6 °C 1001.2 hPa Calm   2.6 km/h 65% 0.0 mm 0 W/m2
18:12 11.8 °C 5.7 °C 1001.2 hPa Calm   2.6 km/h 66% 0.0 mm 0 W/m2
18:17 11.6 °C 5.7 °C 1001.6 hPa Calm   1.1 km/h 67% 0.0 mm 0 W/m2
18:22 11.5 °C 5.8 °C 1001.2 hPa Calm   6.1 km/h 68% 0.0 mm 0 W/m2
18:27 11.4 °C 5.9 °C 1001.6 hPa NW 2.6 km/h 7.2 km/h 69% 0.0 mm 0 W/m2
18:32 11.3 °C 5.6 °C 1001.2 hPa NW 2.6 km/h 13.4 km/h 68% 0.0 mm 0 W/m2
18:37 11.4 °C 5.5 °C 1001.6 hPa NW 5.0 km/h 13.4 km/h 67% 0.0 mm 0 W/m2
18:42 11.2 °C 5.1 °C 1001.6 hPa NW 2.6 km/h 11.1 km/h 66% 0.0 mm 0 W/m2
18:47 11.1 °C 5.0 °C 1001.6 hPa NW 1.1 km/h 7.2 km/h 66% 0.0 mm 0 W/m2
18:52 10.9 °C 5.2 °C 1001.6 hPa Calm   6.1 km/h 68% 0.0 mm 0 W/m2
18:57 10.8 °C 5.3 °C 1001.6 hPa NNW 2.6 km/h 6.1 km/h 69% 0.0 mm 0 W/m2
19:02 10.7 °C 5.2 °C 1001.6 hPa NNW 1.1 km/h 7.2 km/h 69% 0.0 mm 0 W/m2
19:07 10.6 °C 5.2 °C 1001.6 hPa NNW 1.1 km/h 7.2 km/h 69% 0.0 mm 0 W/m2
19:12 10.5 °C 5.3 °C 1001.6 hPa Calm   3.5 km/h 70% 0.0 mm 0 W/m2
19:17 10.3 °C 5.5 °C 1001.6 hPa North 1.1 km/h 3.5 km/h 72% 0.0 mm 0 W/m2
19:22 10.2 °C 5.6 °C 1001.6 hPa North 1.1 km/h 3.5 km/h 73% 0.0 mm 0 W/m2
19:27 10.1 °C 5.7 °C 1001.6 hPa Calm   3.5 km/h 74% 0.0 mm 0 W/m2
19:32 9.8 °C 5.6 °C 1001.6 hPa Calm   2.6 km/h 75% 0.0 mm 0 W/m2
19:37 9.6 °C 5.4 °C 1001.6 hPa Calm     75% 0.0 mm 0 W/m2
19:42 9.4 °C 5.4 °C 1001.6 hPa Calm   1.1 km/h 76% 0.0 mm 0 W/m2
19:47 9.5 °C 5.5 °C 1001.6 hPa North 2.6 km/h 6.1 km/h 76% 0.0 mm 0 W/m2
19:52 9.5 °C 5.5 °C 1001.6 hPa North 1.1 km/h 6.1 km/h 76% 0.0 mm 0 W/m2
19:57 9.6 °C 5.6 °C 1001.6 hPa North 1.1 km/h 6.1 km/h 76% 0.0 mm 0 W/m2
20:02 9.7 °C 5.5 °C 1001.6 hPa North 3.5 km/h 6.1 km/h 75% 0.0 mm 0 W/m2
20:07 9.7 °C 5.5 °C 1001.9 hPa Calm   6.1 km/h 75% 0.0 mm 0 W/m2
20:12 9.7 °C 5.5 °C 1001.6 hPa Calm   5.0 km/h 75% 0.0 mm 0 W/m2
20:17 9.7 °C 5.5 °C 1001.9 hPa NNW 1.1 km/h 5.0 km/h 75% 0.0 mm 0 W/m2
20:22 9.6 °C 5.4 °C 1001.9 hPa Calm   5.0 km/h 75% 0.0 mm 0 W/m2
20:27 9.4 °C 5.4 °C 1001.9 hPa Calm   3.5 km/h 76% 0.0 mm 0 W/m2
20:32 9.1 °C 5.1 °C 1001.6 hPa Calm     76% 0.0 mm 0 W/m2
20:37 9.0 °C 5.2 °C 1001.6 hPa Calm   1.1 km/h 77% 0.0 mm 0 W/m2
20:42 8.8 °C 5.3 °C 1001.9 hPa Calm   1.1 km/h 79% 0.0 mm 0 W/m2
20:47 8.5 °C 5.1 °C 1001.6 hPa Calm   1.1 km/h 79% 0.0 mm 0 W/m2
20:52 8.4 °C 5.3 °C 1001.6 hPa Calm   1.1 km/h 81% 0.0 mm 0 W/m2
20:57 8.3 °C 5.2 °C 1001.6 hPa Calm   1.1 km/h 81% 0.0 mm 0 W/m2
21:02 8.2 °C 5.1 °C 1001.9 hPa Calm   1.1 km/h 81% 0.0 mm 0 W/m2
21:07 8.0 °C 5.1 °C 1001.9 hPa Calm     82% 0.0 mm 0 W/m2
21:12 7.8 °C 5.1 °C 1002.3 hPa Calm   1.1 km/h 83% 0.0 mm 0 W/m2
21:17 7.6 °C 4.9 °C 1002.3 hPa Calm   3.5 km/h 83% 0.0 mm 0 W/m2
21:22 7.5 °C 5.0 °C 1001.9 hPa Calm   3.5 km/h 84% 0.0 mm 0 W/m2
21:27 7.5 °C 5.2 °C 1001.9 hPa Calm   1.1 km/h 85% 0.0 mm 0 W/m2
21:32 7.6 °C 5.2 °C 1001.9 hPa Calm     85% 0.0 mm 0 W/m2
21:37 7.5 °C 5.2 °C 1001.9 hPa Calm     85% 0.0 mm 0 W/m2
21:42 7.4 °C 5.1 °C 1001.9 hPa NW 2.6 km/h 3.5 km/h 85% 0.0 mm 0 W/m2
21:47 7.3 °C 5.1 °C 1001.9 hPa NNW 2.6 km/h 5.0 km/h 86% 0.0 mm 0 W/m2
21:52 7.3 °C 5.1 °C 1001.9 hPa Calm   5.0 km/h 86% 0.0 mm 0 W/m2
21:57 7.2 °C 5.0 °C 1001.9 hPa Calm   2.6 km/h 86% 0.0 mm 0 W/m2
22:02 7.1 °C 4.9 °C 1001.9 hPa Calm     86% 0.0 mm 0 W/m2
22:07 7.1 °C 5.1 °C 1001.9 hPa Calm   1.1 km/h 87% 0.0 mm 0 W/m2
22:12 7.0 °C 5.0 °C 1001.9 hPa Calm   1.1 km/h 87% 0.0 mm 0 W/m2
22:17 6.8 °C 5.1 °C 1002.3 hPa Calm   1.1 km/h 89% 0.0 mm 0 W/m2
22:22 6.7 °C 5.0 °C 1002.3 hPa Calm   1.1 km/h 89% 0.0 mm 0 W/m2
22:27 6.7 °C 5.0 °C 1002.3 hPa Calm     89% 0.0 mm 0 W/m2
22:32 6.7 °C 5.2 °C 1002.3 hPa Calm     90% 0.0 mm 0 W/m2
22:37 6.8 °C 5.3 °C 1002.3 hPa Calm     90% 0.0 mm 0 W/m2
22:42 6.9 °C 5.4 °C 1002.3 hPa NW 1.1 km/h 3.5 km/h 90% 0.0 mm 0 W/m2
22:47 7.0 °C 5.3 °C 1002.3 hPa Calm   3.5 km/h 89% 0.0 mm 0 W/m2
22:52 6.9 °C 5.4 °C 1002.3 hPa Calm   2.6 km/h 90% 0.0 mm 0 W/m2
22:57 6.9 °C 5.4 °C 1002.3 hPa Calm   1.1 km/h 90% 0.0 mm 0 W/m2
23:02 6.9 °C 5.4 °C 1002.3 hPa Calm     90% 0.0 mm 0 W/m2
23:07 6.8 °C 5.3 °C 1002.6 hPa Calm     90% 0.0 mm 0 W/m2
23:12 6.8 °C 5.3 °C 1002.3 hPa Calm   1.1 km/h 90% 0.0 mm 0 W/m2
23:17 6.8 °C 5.4 °C 1002.3 hPa Calm   2.6 km/h 91% 0.0 mm 0 W/m2
23:22 6.9 °C 5.6 °C 1002.3 hPa Calm   2.6 km/h 91% 0.0 mm 0 W/m2
23:27 6.9 °C 5.6 °C 1002.3 hPa Calm   2.6 km/h 91% 0.0 mm 0 W/m2
23:32 6.8 °C 5.4 °C 1002.6 hPa Calm   1.1 km/h 91% 0.0 mm 0 W/m2
23:37 6.8 °C 5.6 °C 1002.3 hPa North 1.1 km/h 2.6 km/h 92% 0.0 mm 0 W/m2
23:42 6.7 °C 5.5 °C 1002.6 hPa Calm   2.6 km/h 92% 0.0 mm 0 W/m2
23:47 6.6 °C 5.4 °C 1002.6 hPa Calm   2.6 km/h 92% 0.0 mm 0 W/m2
23:52 6.6 °C 5.4 °C 1002.6 hPa Calm   1.1 km/h 92% 0.0 mm 0 W/m2
23:57 6.6 °C 5.6 °C 1002.9 hPa Calm   1.1 km/h 93% 0.0 mm 0 W/m2
Northern Hawkes Bay. New Zealand Historic Data
Compliments of Weather Underground - 2.25 mb